Time;durP1;ratioP1;P1;durP2;ratioP2;P2;SDS_P1;SDS_P2;PMS_P1;PMS_P2;Temp;Humidity;BMP_temperature;BMP_pressure;BME280_temperature;BME280_humidity;BME280_pressure;Samples;Min_cycle;Max_cycle;Signal;HPM_P1;HPM_P2
2022/08/05 00:00:17;;;;;;;19.02;14.23;;;;;;;;;;4960661;28;20281;-75
2022/08/05 00:02:46;;;;;;;20.33;14.35;;;;;;;;;;4971115;28;20205;-75
2022/08/05 00:05:19;;;;;;;21.38;14.50;;;;;;;;;;4974743;28;20218;-75
2022/08/05 00:08:08;;;;;;;23.27;16.55;;;;;;;;;;4965239;28;20268;-75
2022/08/05 00:10:56;;;;;;;20.58;16.13;;;;;;;;;;4969595;28;20206;-75
2022/08/05 00:13:29;;;;;;;26.73;18.13;;;;;;;;;;4969625;28;20227;-75
2022/08/05 00:16:06;;;;;;;25.10;18.60;;;;;;;;;;4974720;28;20301;-75
2022/08/05 00:18:36;;;;;;;25.60;17.10;;;;;;;;;;4973796;28;20279;-75
2022/08/05 00:21:05;;;;;;;24.20;17.52;;;;;;;;;;4972700;28;20317;-75
2022/08/05 00:23:36;;;;;;;24.52;17.45;;;;;;;;;;4973960;28;20730;-75
2022/08/05 00:26:20;;;;;;;19.02;16.08;;;;;;;;;;4968086;28;20305;-75
2022/08/05 00:28:51;;;;;;;21.35;15.55;;;;;;;;;;4967788;28;20230;-75
2022/08/05 00:31:19;;;;;;;23.42;16.67;;;;;;;;;;4972866;28;20205;-75
2022/08/05 00:34:08;;;;;;;24.70;16.50;;;;;;;;;;4969237;28;20261;-75
2022/08/05 00:36:56;;;;;;;19.48;17.02;;;;;;;;;;4974172;28;20209;-75
2022/08/05 00:39:41;;;;;;;22.10;16.52;;;;;;;;;;4971711;28;20206;-75
2022/08/05 00:42:31;;;;;;;21.25;16.45;;;;;;;;;;4967326;28;20232;-75
2022/08/05 00:45:01;;;;;;;24.10;17.70;;;;;;;;;;4963398;28;20554;-75
2022/08/05 00:47:30;;;;;;;22.60;16.98;;;;;;;;;;4973936;28;21069;-75
2022/08/05 00:50:18;;;;;;;22.48;16.95;;;;;;;;;;4970379;28;20600;-75
2022/08/05 00:52:48;;;;;;;20.48;16.05;;;;;;;;;;4970089;28;20289;-75
2022/08/05 00:55:20;;;;;;;24.17;16.55;;;;;;;;;;4974080;28;20244;-75
2022/08/05 00:57:49;;;;;;;26.50;16.33;;;;;;;;;;4972279;28;20217;-75
2022/08/05 01:00:28;;;;;;;21.52;16.15;;;;;;;;;;4958792;28;20657;-75
2022/08/05 01:02:57;;;;;;;24.58;16.30;;;;;;;;;;4969677;28;20206;-75
2022/08/05 01:05:27;;;;;;;22.67;17.10;;;;;;;;;;4973449;28;20221;-75
2022/08/05 01:07:56;;;;;;;25.70;17.27;;;;;;;;;;4964008;28;20230;-75
2022/08/05 01:10:47;;;;;;;23.90;16.40;;;;;;;;;;4960637;28;20202;-75
2022/08/05 01:13:22;;;;;;;24.15;16.25;;;;;;;;;;4972278;28;20201;-76
2022/08/05 01:16:13;;;;;;;26.52;16.48;;;;;;;;;;4956160;28;20214;-75
2022/08/05 01:18:50;;;;;;;22.48;16.45;;;;;;;;;;4973016;28;20233;-76
2022/08/05 01:21:44;;;;;;;22.10;15.43;;;;;;;;;;4973217;28;20221;-76
2022/08/05 01:24:24;;;;;;;25.13;17.13;;;;;;;;;;4970758;28;20217;-76
2022/08/05 01:27:00;;;;;;;29.45;17.85;;;;;;;;;;4964399;28;20213;-76
2022/08/05 01:29:49;;;;;;;25.38;17.73;;;;;;;;;;4975762;28;20296;-76
2022/08/05 01:32:21;;;;;;;23.85;17.48;;;;;;;;;;4976857;28;20714;-76
2022/08/05 01:34:52;;;;;;;28.10;17.42;;;;;;;;;;4977389;28;20202;-76
2022/08/05 01:37:24;;;;;;;24.50;17.33;;;;;;;;;;4977302;28;20202;-78
2022/08/05 01:39:54;;;;;;;31.25;18.15;;;;;;;;;;4977369;28;20292;-77
2022/08/05 01:42:27;;;;;;;27.52;19.02;;;;;;;;;;4968965;28;20256;-77
2022/08/05 01:44:58;;;;;;;30.95;20.30;;;;;;;;;;4977419;28;20209;-77
2022/08/05 01:47:30;;;;;;;30.83;20.85;;;;;;;;;;4976423;28;20229;-78
2022/08/05 01:50:11;;;;;;;34.20;21.00;;;;;;;;;;4976820;28;20206;-77
2022/08/05 01:52:44;;;;;;;29.80;21.02;;;;;;;;;;4975860;28;20317;-77
2022/08/05 01:55:18;;;;;;;32.65;21.13;;;;;;;;;;4968904;28;20668;-77
2022/08/05 01:57:47;;;;;;;30.98;20.98;;;;;;;;;;4975906;28;20229;-77
2022/08/05 02:00:39;;;;;;;29.13;20.55;;;;;;;;;;4970517;28;20234;-77
2022/08/05 02:03:10;;;;;;;33.63;21.02;;;;;;;;;;4974709;28;20217;-77
2022/08/05 02:05:58;;;;;;;29.23;19.52;;;;;;;;;;4972621;28;20210;-77
2022/08/05 02:08:31;;;;;;;31.95;20.80;;;;;;;;;;4977223;28;20225;-77
2022/08/05 02:11:03;;;;;;;27.40;19.30;;;;;;;;;;4974376;28;20206;-77
2022/08/05 02:13:35;;;;;;;25.30;18.40;;;;;;;;;;4977128;28;20210;-77
2022/08/05 02:16:23;;;;;;;24.02;17.92;;;;;;;;;;4960571;28;20586;-77
2022/08/05 02:18:56;;;;;;;25.95;17.83;;;;;;;;;;4968788;28;20223;-77
2022/08/05 02:21:27;;;;;;;28.30;19.02;;;;;;;;;;4972893;28;20206;-77
2022/08/05 02:24:00;;;;;;;26.83;19.70;;;;;;;;;;4976974;28;20206;-77
2022/08/05 02:26:34;;;;;;;26.83;19.48;;;;;;;;;;4976271;28;20214;-76
2022/08/05 02:29:02;;;;;;;26.17;18.70;;;;;;;;;;4967685;28;20312;-76
2022/08/05 02:31:33;;;;;;;24.52;19.42;;;;;;;;;;4974163;28;20210;-76
2022/08/05 02:34:03;;;;;;;26.73;18.08;;;;;;;;;;4973305;28;20206;-76
2022/08/05 02:36:32;;;;;;;25.13;17.80;;;;;;;;;;4975621;28;20265;-78
2022/08/05 02:39:03;;;;;;;21.70;17.70;;;;;;;;;;4976717;28;20230;-77
2022/08/05 02:41:36;;;;;;;25.42;18.10;;;;;;;;;;4972353;28;20221;-77
2022/08/05 02:44:25;;;;;;;27.55;17.75;;;;;;;;;;4976020;28;20658;-77
2022/08/05 02:46:56;;;;;;;27.58;18.83;;;;;;;;;;4973670;28;20213;-77
2022/08/05 02:49:30;;;;;;;26.77;17.92;;;;;;;;;;4967017;28;20580;-77
2022/08/05 02:52:08;;;;;;;25.73;18.30;;;;;;;;;;4957419;28;20205;-78
2022/08/05 02:54:37;;;;;;;24.38;18.25;;;;;;;;;;4965730;28;20202;-77
2022/08/05 02:57:11;;;;;;;27.10;17.80;;;;;;;;;;4974304;28;20214;-77
2022/08/05 03:00:00;;;;;;;24.75;18.88;;;;;;;;;;4976393;28;20262;-77
2022/08/05 03:02:33;;;;;;;27.42;18.88;;;;;;;;;;4974456;28;20221;-76
2022/08/05 03:05:03;;;;;;;25.25;19.20;;;;;;;;;;4973335;28;20945;-77
2022/08/05 03:07:32;;;;;;;25.25;18.33;;;;;;;;;;4975764;28;20233;-77
2022/08/05 03:10:21;;;;;;;29.15;18.73;;;;;;;;;;4976517;28;20327;-77
2022/08/05 03:12:53;;;;;;;28.98;19.08;;;;;;;;;;4974426;28;20201;-77
2022/08/05 03:15:22;;;;;;;22.58;18.33;;;;;;;;;;4975975;28;20256;-77
2022/08/05 03:17:54;;;;;;;28.95;19.27;;;;;;;;;;4973919;28;20233;-77
2022/08/05 03:20:25;;;;;;;28.13;19.33;;;;;;;;;;4976031;28;20194;-77
2022/08/05 03:22:55;;;;;;;29.85;20.20;;;;;;;;;;4974961;28;20237;-77
2022/08/05 03:25:25;;;;;;;25.40;19.20;;;;;;;;;;4975034;28;20209;-77
2022/08/05 03:28:02;;;;;;;26.70;18.90;;;;;;;;;;4960472;28;20222;-76
2022/08/05 03:30:32;;;;;;;24.92;18.48;;;;;;;;;;4973242;28;20593;-77
2022/08/05 03:33:03;;;;;;;27.67;18.52;;;;;;;;;;4974180;28;20197;-76
2022/08/05 03:35:33;;;;;;;26.25;18.08;;;;;;;;;;4973485;28;20304;-76
2022/08/05 03:38:11;;;;;;;25.90;18.05;;;;;;;;;;4961250;28;20717;-76
2022/08/05 03:40:41;;;;;;;27.73;17.98;;;;;;;;;;4975605;28;20194;-76
2022/08/05 03:43:14;;;;;;;24.23;18.33;;;;;;;;;;4973755;28;20552;-77
2022/08/05 03:46:03;;;;;;;26.55;18.45;;;;;;;;;;4966890;28;20253;-77
2022/08/05 03:48:33;;;;;;;20.65;16.90;;;;;;;;;;4974020;28;20225;-77
2022/08/05 03:51:07;;;;;;;29.27;17.55;;;;;;;;;;4967628;28;20202;-77
2022/08/05 03:53:56;;;;;;;24.67;16.95;;;;;;;;;;4974144;28;20209;-77
2022/08/05 03:56:46;;;;;;;24.88;17.05;;;;;;;;;;4964546;28;20231;-76
2022/08/05 03:59:17;;;;;;;24.67;16.88;;;;;;;;;;4969628;28;20284;-77
2022/08/05 04:01:50;;;;;;;23.35;16.27;;;;;;;;;;4973671;28;20206;-77
2022/08/05 04:04:21;;;;;;;23.20;15.40;;;;;;;;;;4974474;28;20226;-77
2022/08/05 04:06:54;;;;;;;22.42;16.08;;;;;;;;;;4973574;28;20228;-77
2022/08/05 04:09:23;;;;;;;24.20;15.25;;;;;;;;;;4972752;28;20264;-76
2022/08/05 04:11:54;;;;;;;25.10;15.45;;;;;;;;;;4973630;28;20619;-77
2022/08/05 04:14:24;;;;;;;22.35;15.15;;;;;;;;;;4961781;28;20605;-76
2022/08/05 04:16:58;;;;;;;23.30;14.93;;;;;;;;;;4968909;28;20280;-77
2022/08/05 04:19:28;;;;;;;21.90;15.18;;;;;;;;;;4975014;28;20225;-77
2022/08/05 04:21:56;;;;;;;20.02;14.60;;;;;;;;;;4970259;28;20198;-77
2022/08/05 04:24:38;;;;;;;20.95;13.52;;;;;;;;;;4969760;28;20232;-77
2022/08/05 04:27:11;;;;;;;18.10;13.00;;;;;;;;;;4974352;28;20201;-77
2022/08/05 04:29:40;;;;;;;20.02;12.90;;;;;;;;;;4974515;28;20651;-77
2022/08/05 04:32:09;;;;;;;17.83;12.10;;;;;;;;;;4973832;28;20261;-77
2022/08/05 04:34:39;;;;;;;17.95;12.60;;;;;;;;;;4974552;28;20198;-77
2022/08/05 04:37:10;;;;;;;19.58;12.30;;;;;;;;;;4973793;28;20210;-77
2022/08/05 04:39:59;;;;;;;14.43;10.57;;;;;;;;;;4970134;28;20280;-77
2022/08/05 04:42:29;;;;;;;16.83;11.65;;;;;;;;;;4960793;28;20209;-77
2022/08/05 04:44:57;;;;;;;15.20;10.27;;;;;;;;;;4974157;28;20209;-77
2022/08/05 04:47:28;;;;;;;18.45;9.50;;;;;;;;;;4970137;28;20222;-76
2022/08/05 04:50:07;;;;;;;14.25;9.95;;;;;;;;;;4968682;28;20220;-76
2022/08/05 04:52:38;;;;;;;12.60;10.13;;;;;;;;;;4964543;28;20208;-76
2022/08/05 04:55:08;;;;;;;13.98;9.30;;;;;;;;;;4973985;28;20210;-76
2022/08/05 04:57:44;;;;;;;13.00;9.68;;;;;;;;;;4966610;28;20229;-77
2022/08/05 05:00:19;;;;;;;14.13;9.27;;;;;;;;;;4973160;28;20236;-76
2022/08/05 05:02:50;;;;;;;12.55;9.45;;;;;;;;;;4972296;28;20241;-77
2022/08/05 05:05:20;;;;;;;12.60;9.75;;;;;;;;;;4973170;28;20663;-77
2022/08/05 05:07:56;;;;;;;10.50;9.15;;;;;;;;;;4966842;28;20348;-77
2022/08/05 05:10:29;;;;;;;12.50;9.65;;;;;;;;;;4973884;28;20217;-77
2022/08/05 05:13:00;;;;;;;10.32;8.75;;;;;;;;;;4972350;28;20249;-77
2022/08/05 05:15:31;;;;;;;11.57;8.30;;;;;;;;;;4973146;28;20202;-76
2022/08/05 05:18:19;;;;;;;13.00;8.10;;;;;;;;;;4973834;28;20761;-77
2022/08/05 05:21:02;;;;;;;10.45;7.88;;;;;;;;;;4971372;28;20206;-77
2022/08/05 05:23:32;;;;;;;11.70;7.88;;;;;;;;;;4973019;28;20756;-77
2022/08/05 05:26:21;;;;;;;8.75;6.40;;;;;;;;;;4972547;28;20202;-77
2022/08/05 05:29:00;;;;;;;9.18;6.47;;;;;;;;;;4974042;28;20312;-77
2022/08/05 05:31:30;;;;;;;8.45;6.10;;;;;;;;;;4972412;28;21037;-76
2022/08/05 05:33:57;;;;;;;8.38;6.03;;;;;;;;;;4973118;28;20631;-76
2022/08/05 05:36:32;;;;;;;9.35;5.97;;;;;;;;;;4973622;28;20202;-76
2022/08/05 05:39:04;;;;;;;10.93;6.03;;;;;;;;;;4971292;28;20225;-77
2022/08/05 05:41:38;;;;;;;9.43;5.20;;;;;;;;;;4974643;28;20216;-77
2022/08/05 05:44:08;;;;;;;6.50;5.10;;;;;;;;;;4965255;28;20226;-77
2022/08/05 05:46:56;;;;;;;10.10;5.82;;;;;;;;;;4964282;28;20265;-76
2022/08/05 05:49:25;;;;;;;6.70;4.88;;;;;;;;;;4963558;28;20257;-76
2022/08/05 05:51:55;;;;;;;9.13;6.20;;;;;;;;;;4974087;28;20265;-76
2022/08/05 05:54:24;;;;;;;8.50;5.57;;;;;;;;;;4974293;28;20189;-76
2022/08/05 05:57:12;;;;;;;9.20;6.35;;;;;;;;;;4973091;28;20261;-76
2022/08/05 05:59:46;;;;;;;11.82;6.30;;;;;;;;;;4973649;28;20276;-75
2022/08/05 06:02:16;;;;;;;9.15;5.95;;;;;;;;;;4963429;28;20217;-76
2022/08/05 06:05:05;;;;;;;8.82;6.15;;;;;;;;;;4967015;28;20698;-76
2022/08/05 06:07:45;;;;;;;9.52;6.30;;;;;;;;;;4954608;29;20235;-77
2022/08/05 06:10:29;;;;;;;9.65;6.03;;;;;;;;;;4965588;28;20220;-76
2022/08/05 06:13:05;;;;;;;8.57;6.15;;;;;;;;;;4959864;28;20249;-76
2022/08/05 06:15:33;;;;;;;10.23;6.38;;;;;;;;;;4972044;28;20203;-76
2022/08/05 06:18:22;;;;;;;7.18;6.20;;;;;;;;;;4974842;28;20720;-76
2022/08/05 06:20:59;;;;;;;11.48;6.38;;;;;;;;;;4975975;28;20212;-76
2022/08/05 06:23:29;;;;;;;8.32;6.50;;;;;;;;;;4973592;28;20210;-77
2022/08/05 06:26:11;;;;;;;8.13;6.05;;;;;;;;;;4962971;28;20696;-76
2022/08/05 06:28:52;;;;;;;9.50;6.53;;;;;;;;;;4971528;28;20232;-77
2022/08/05 06:31:20;;;;;;;8.68;6.57;;;;;;;;;;4974641;28;20632;-77
2022/08/05 06:33:57;;;;;;;8.85;6.28;;;;;;;;;;4976628;28;20220;-77
2022/08/05 06:36:36;;;;;;;8.52;6.35;;;;;;;;;;4976811;28;20209;-77
2022/08/05 06:39:26;;;;;;;10.02;7.28;;;;;;;;;;4974985;28;20218;-77
2022/08/05 06:41:56;;;;;;;12.25;7.15;;;;;;;;;;4976089;28;20216;-77
2022/08/05 06:44:35;;;;;;;15.73;8.35;;;;;;;;;;4976481;28;20724;-77
2022/08/05 06:47:04;;;;;;;10.50;7.38;;;;;;;;;;4967616;28;20201;-76
2022/08/05 06:49:37;;;;;;;9.65;7.40;;;;;;;;;;4978350;28;20205;-75
2022/08/05 06:52:26;;;;;;;11.55;7.70;;;;;;;;;;4973621;28;20202;-76
2022/08/05 06:55:09;;;;;;;12.70;8.45;;;;;;;;;;4957147;29;20208;-76
2022/08/05 06:57:38;;;;;;;10.15;7.82;;;;;;;;;;4972332;28;20213;-76
2022/08/05 07:00:30;;;;;;;12.90;8.48;;;;;;;;;;4977561;28;20284;-76
2022/08/05 07:03:00;;;;;;;12.18;7.53;;;;;;;;;;4977921;28;20333;-76
2022/08/05 07:05:28;;;;;;;11.50;8.25;;;;;;;;;;4973491;28;20237;-76
2022/08/05 07:08:06;;;;;;;16.25;9.52;;;;;;;;;;4975685;28;20230;-75
2022/08/05 07:10:40;;;;;;;11.07;8.60;;;;;;;;;;4976876;28;20205;-76
2022/08/05 07:19:33;;;;;;;12.27;8.38;;;;;;;;;;4970343;28;20210;-77
2022/08/05 07:22:22;;;;;;;11.10;7.90;;;;;;;;;;4956895;28;20220;-76
2022/08/05 07:24:57;;;;;;;11.85;8.27;;;;;;;;;;4974975;28;20213;-76
2022/08/05 07:27:27;;;;;;;10.18;7.38;;;;;;;;;;4978416;28;20234;-76
2022/08/05 07:30:20;;;;;;;11.80;7.65;;;;;;;;;;4972939;28;20617;-75
2022/08/05 07:32:58;;;;;;;9.15;7.57;;;;;;;;;;4956368;28;20210;-76
2022/08/05 07:35:45;;;;;;;11.00;6.72;;;;;;;;;;4974058;28;20209;-75
2022/08/05 07:38:34;;;;;;;10.57;7.00;;;;;;;;;;4983798;28;20237;-80
2022/08/05 07:41:12;;;;;;;11.18;6.82;;;;;;;;;;4990792;28;20229;-79
2022/08/05 07:44:03;;;;;;;8.43;7.10;;;;;;;;;;4989813;28;20225;-80
2022/08/05 07:46:42;;;;;;;7.68;6.28;;;;;;;;;;4992282;28;20225;-80
2022/08/05 07:49:16;;;;;;;8.30;6.03;;;;;;;;;;4978706;28;20300;-76
2022/08/05 07:51:45;;;;;;;9.60;6.20;;;;;;;;;;4975718;28;20210;-76
2022/08/05 07:54:30;;;;;;;9.40;7.25;;;;;;;;;;4974073;28;20289;-77
2022/08/05 07:57:18;;;;;;;9.43;6.28;;;;;;;;;;4956184;29;20570;-76
2022/08/05 08:00:09;;;;;;;9.85;6.45;;;;;;;;;;4963905;28;20207;-76
2022/08/05 08:02:38;;;;;;;10.38;6.35;;;;;;;;;;4974922;28;20241;-77
2022/08/05 08:05:27;;;;;;;8.75;6.25;;;;;;;;;;4973221;28;20278;-77
2022/08/05 08:07:56;;;;;;;6.90;5.45;;;;;;;;;;4973535;28;20610;-77
2022/08/05 08:10:28;;;;;;;8.05;5.63;;;;;;;;;;4975007;28;20209;-76
2022/08/05 08:12:57;;;;;;;8.57;6.05;;;;;;;;;;4973719;28;20234;-77
2022/08/05 08:15:30;;;;;;;7.80;6.38;;;;;;;;;;4970511;28;20206;-76
2022/08/05 08:18:19;;;;;;;8.13;5.82;;;;;;;;;;4974048;28;20281;-76
2022/08/05 08:20:50;;;;;;;9.93;6.20;;;;;;;;;;4975235;28;20229;-78
2022/08/05 08:23:31;;;;;;;9.48;6.00;;;;;;;;;;4975335;28;20186;-78
2022/08/05 08:26:21;;;;;;;9.88;6.10;;;;;;;;;;4973994;28;20217;-78
2022/08/05 08:28:57;;;;;;;8.07;6.10;;;;;;;;;;4972888;28;20256;-78
2022/08/05 08:31:47;;;;;;;11.75;6.78;;;;;;;;;;4974282;28;20206;-78
2022/08/05 08:34:15;;;;;;;7.82;7.00;;;;;;;;;;4974437;28;20206;-77
2022/08/05 08:36:48;;;;;;;10.50;6.55;;;;;;;;;;4974440;28;20694;-76
2022/08/05 08:39:25;;;;;;;8.20;7.15;;;;;;;;;;4973172;28;20225;-76
2022/08/05 08:41:59;;;;;;;11.77;7.32;;;;;;;;;;4962899;28;20300;-75
2022/08/05 08:44:30;;;;;;;10.25;7.70;;;;;;;;;;4955549;29;20194;-76
2022/08/05 08:47:23;;;;;;;10.43;7.50;;;;;;;;;;4973969;28;20202;-76
2022/08/05 08:50:13;;;;;;;8.93;8.02;;;;;;;;;;4970925;28;20280;-76
2022/08/05 08:53:03;;;;;;;11.25;8.30;;;;;;;;;;4971868;28;20628;-76
2022/08/05 08:55:52;;;;;;;10.93;8.68;;;;;;;;;;4972916;28;20679;-75
2022/08/05 08:58:33;;;;;;;10.25;8.32;;;;;;;;;;4973296;28;20593;-76
2022/08/05 09:01:12;;;;;;;9.20;7.90;;;;;;;;;;4973325;28;20229;-76
2022/08/05 09:03:46;;;;;;;9.00;8.10;;;;;;;;;;4972854;28;20213;-76
2022/08/05 09:06:15;;;;;;;10.88;9.00;;;;;;;;;;4965160;28;20229;-76
2022/08/05 09:08:55;;;;;;;9.73;8.82;;;;;;;;;;4955193;29;20226;-76
2022/08/05 09:11:33;;;;;;;9.95;9.02;;;;;;;;;;4968411;28;20241;-76
2022/08/05 09:14:21;;;;;;;10.73;8.90;;;;;;;;;;4973972;28;20206;-76
2022/08/05 09:17:11;;;;;;;11.02;9.38;;;;;;;;;;4973238;28;20201;-76
2022/08/05 09:20:02;;;;;;;10.65;9.63;;;;;;;;;;4973005;28;20252;-76
2022/08/05 09:23:04;;;;;;;10.30;9.13;;;;;;;;;;4974090;28;20218;-76
2022/08/05 09:25:48;;;;;;;10.40;9.50;;;;;;;;;;4961875;28;20218;-76
2022/08/05 09:28:32;;;;;;;12.13;10.98;;;;;;;;;;4974384;28;20234;-76
2022/08/05 09:31:03;;;;;;;11.25;10.13;;;;;;;;;;4973768;28;20214;-75
2022/08/05 09:33:53;;;;;;;11.05;10.00;;;;;;;;;;4965517;28;20579;-76
2022/08/05 09:36:38;;;;;;;9.98;9.05;;;;;;;;;;4973147;28;20228;-75
2022/08/05 09:39:23;;;;;;;9.07;8.27;;;;;;;;;;4968543;28;20234;-77
2022/08/05 09:42:14;;;;;;;10.15;9.25;;;;;;;;;;4973200;28;20667;-77
2022/08/05 09:44:55;;;;;;;10.43;9.43;;;;;;;;;;4974540;28;20194;-77
2022/08/05 09:47:44;;;;;;;10.90;9.73;;;;;;;;;;4963997;28;20226;-77
2022/08/05 09:50:23;;;;;;;11.20;9.75;;;;;;;;;;4973085;28;20714;-77
2022/08/05 09:53:07;;;;;;;11.52;10.52;;;;;;;;;;4958557;29;20229;-79
2022/08/05 09:55:58;;;;;;;14.57;12.30;;;;;;;;;;4988940;28;20218;-80
2022/08/05 09:58:57;;;;;;;14.60;13.13;;;;;;;;;;5001676;28;20241;-80
2022/08/05 10:01:42;;;;;;;15.75;12.70;;;;;;;;;;5005379;23;20210;-80
2022/08/05 10:04:14;;;;;;;14.20;12.70;;;;;;;;;;4988885;28;20300;-80
2022/08/05 10:06:54;;;;;;;14.68;11.90;;;;;;;;;;4994345;28;20236;-80
2022/08/05 10:09:41;;;;;;;13.20;11.60;;;;;;;;;;4993015;28;20243;-80
2022/08/05 10:12:13;;;;;;;14.35;12.35;;;;;;;;;;4952455;28;20632;-74
2022/08/05 10:15:14;;;;;;;14.35;12.85;;;;;;;;;;4958154;28;20261;-76
2022/08/05 10:18:03;;;;;;;16.55;13.90;;;;;;;;;;4952208;28;20227;-76
2022/08/05 10:20:33;;;;;;;15.45;13.85;;;;;;;;;;4942660;29;20242;-75
2022/08/05 10:23:01;;;;;;;16.45;13.80;;;;;;;;;;4957885;29;20202;-74
2022/08/05 10:25:32;;;;;;;15.13;13.63;;;;;;;;;;4958357;28;20203;-76
2022/08/05 10:28:01;;;;;;;12.25;11.00;;;;;;;;;;4950773;29;20230;-76
2022/08/05 10:30:47;;;;;;;11.10;10.00;;;;;;;;;;4958384;28;20295;-76
2022/08/05 10:33:36;;;;;;;9.73;8.68;;;;;;;;;;4954978;28;20222;-75
2022/08/05 10:36:32;;;;;;;9.98;8.98;;;;;;;;;;4938752;29;20580;-74
2022/08/05 10:39:10;;;;;;;9.93;9.00;;;;;;;;;;4938622;29;20231;-76
2022/08/05 10:42:13;;;;;;;10.90;9.00;;;;;;;;;;4953660;29;20841;-76
2022/08/05 10:44:46;;;;;;;10.13;9.18;;;;;;;;;;4944005;29;20218;-76
2022/08/05 10:47:17;;;;;;;10.13;9.13;;;;;;;;;;4952361;28;20219;-76
2022/08/05 10:50:01;;;;;;;10.25;9.25;;;;;;;;;;4953541;29;20206;-76
2022/08/05 10:52:56;;;;;;;8.40;7.70;;;;;;;;;;4958450;28;20207;-75
2022/08/05 10:55:26;;;;;;;8.38;7.57;;;;;;;;;;4957299;28;20217;-75
2022/08/05 10:58:09;;;;;;;6.78;6.18;;;;;;;;;;4956309;28;20223;-75
2022/08/05 11:00:38;;;;;;;8.00;6.57;;;;;;;;;;4956899;28;20285;-75
2022/08/05 11:03:13;;;;;;;5.88;5.38;;;;;;;;;;4956541;28;20612;-76
2022/08/05 11:06:08;;;;;;;6.00;4.72;;;;;;;;;;4953533;29;20297;-75
2022/08/05 11:09:09;;;;;;;5.57;3.80;;;;;;;;;;4958432;28;20238;-75
2022/08/05 11:11:41;;;;;;;4.80;3.70;;;;;;;;;;4951079;28;20206;-75
2022/08/05 11:14:25;;;;;;;5.43;4.07;;;;;;;;;;4948317;29;20199;-75
2022/08/05 11:17:29;;;;;;;4.93;4.07;;;;;;;;;;4939662;29;20254;-75
2022/08/05 11:20:38;;;;;;;5.43;4.10;;;;;;;;;;4943650;29;20671;-74
2022/08/05 11:23:27;;;;;;;6.10;4.10;;;;;;;;;;4956805;28;20202;-74
2022/08/05 11:26:21;;;;;;;4.40;4.00;;;;;;;;;;4943955;29;20222;-74
2022/08/05 11:29:15;;;;;;;6.35;3.92;;;;;;;;;;4956055;28;20237;-75
2022/08/05 11:31:45;;;;;;;4.35;3.78;;;;;;;;;;4956513;28;20213;-75
2022/08/05 11:34:41;;;;;;;5.90;4.55;;;;;;;;;;4954314;29;20218;-75
2022/08/05 11:37:52;;;;;;;5.95;4.22;;;;;;;;;;4956478;28;20234;-75
2022/08/05 11:41:05;;;;;;;5.07;4.50;;;;;;;;;;4879823;29;20626;-75
2022/08/05 11:43:54;;;;;;;6.43;5.15;;;;;;;;;;4869999;29;20221;-75
2022/08/05 11:46:35;;;;;;;6.60;5.97;;;;;;;;;;4938811;29;20230;-75
2022/08/05 11:49:06;;;;;;;6.22;5.57;;;;;;;;;;4956323;28;20223;-75
2022/08/05 11:51:37;;;;;;;6.05;5.25;;;;;;;;;;4956997;28;20195;-74
2022/08/05 11:57:19;;;;;;;7.55;4.78;;;;;;;;;;4941312;29;20619;-76
2022/08/05 11:59:54;;;;;;;7.07;4.57;;;;;;;;;;4938595;29;20302;-74
2022/08/05 12:02:37;;;;;;;5.57;4.47;;;;;;;;;;4951285;29;20328;-75
2022/08/05 12:05:09;;;;;;;6.53;4.78;;;;;;;;;;4952164;28;20246;-75
2022/08/05 12:07:47;;;;;;;5.18;4.55;;;;;;;;;;4956177;28;20231;-76
2022/08/05 12:10:36;;;;;;;5.20;3.67;;;;;;;;;;4955432;28;20210;-74
2022/08/05 12:13:13;;;;;;;4.97;3.00;;;;;;;;;;4955934;28;20210;-74
2022/08/05 12:15:44;;;;;;;3.10;2.80;;;;;;;;;;4955929;28;20284;-74
2022/08/05 12:18:20;;;;;;;4.57;3.20;;;;;;;;;;4954632;28;20241;-75
2022/08/05 12:20:53;;;;;;;3.25;3.00;;;;;;;;;;4956799;28;20665;-74
2022/08/05 12:23:23;;;;;;;3.97;3.15;;;;;;;;;;4956451;28;20257;-74
2022/08/05 12:25:55;;;;;;;4.10;3.50;;;;;;;;;;4955612;28;20218;-75
2022/08/05 12:28:31;;;;;;;4.75;3.90;;;;;;;;;;4950220;28;20593;-74
2022/08/05 12:34:01;;;;;;;4.68;4.28;;;;;;;;;;4946500;28;20214;-75
2022/08/05 12:36:32;;;;;;;5.75;3.70;;;;;;;;;;4950003;28;20215;-76
2022/08/05 12:39:00;;;;;;;4.18;3.70;;;;;;;;;;4954238;28;20258;-75
2022/08/05 12:41:34;;;;;;;3.10;2.80;;;;;;;;;;4951114;28;20202;-75
2022/08/05 12:44:11;;;;;;;3.58;2.78;;;;;;;;;;4951914;28;20704;-77
2022/08/05 12:46:52;;;;;;;5.82;3.00;;;;;;;;;;4955561;28;20721;-74
2022/08/05 12:49:21;;;;;;;3.85;3.00;;;;;;;;;;4949463;28;20222;-76
2022/08/05 12:51:58;;;;;;;3.22;2.80;;;;;;;;;;4949666;28;20225;-74
2022/08/05 12:54:40;;;;;;;3.95;2.65;;;;;;;;;;4949298;28;20198;-74
2022/08/05 12:57:10;;;;;;;5.05;3.10;;;;;;;;;;4947640;28;20211;-74
2022/08/05 12:59:47;;;;;;;4.43;2.80;;;;;;;;;;4947577;28;20305;-75
2022/08/05 13:02:36;;;;;;;3.35;3.05;;;;;;;;;;4950798;28;20213;-75
2022/08/05 13:05:09;;;;;;;3.40;3.00;;;;;;;;;;4948956;28;20597;-75
2022/08/05 13:07:51;;;;;;;3.06;2.71;;;;;;;;;;4877918;28;10001088;-74
2022/08/05 13:10:28;;;;;;;3.70;2.83;;;;;;;;;;4948357;29;20407;-74
2022/08/05 13:12:57;;;;;;;3.92;3.13;;;;;;;;;;4946412;28;20245;-75
2022/08/05 13:15:30;;;;;;;3.47;3.17;;;;;;;;;;4948900;28;20215;-75
2022/08/05 13:18:09;;;;;;;4.40;3.05;;;;;;;;;;4952136;28;20219;-75
2022/08/05 13:23:29;;;;;;;3.63;2.67;;;;;;;;;;4949315;29;20573;-76
2022/08/05 13:25:59;;;;;;;3.47;2.60;;;;;;;;;;4954940;28;20206;-76
2022/08/05 13:28:28;;;;;;;4.47;2.78;;;;;;;;;;4945940;28;20230;-76
2022/08/05 13:30:59;;;;;;;3.40;2.97;;;;;;;;;;4956786;28;20202;-76
2022/08/05 13:33:42;;;;;;;3.17;2.88;;;;;;;;;;4955072;29;20199;-76
2022/08/05 13:36:30;;;;;;;3.60;2.83;;;;;;;;;;4937093;29;20253;-75
2022/08/05 13:39:00;;;;;;;4.78;2.30;;;;;;;;;;4956134;28;20606;-75
2022/08/05 13:41:50;;;;;;;3.42;2.70;;;;;;;;;;4954602;28;20218;-75
2022/08/05 13:44:20;;;;;;;3.60;3.30;;;;;;;;;;4937191;29;20238;-76
2022/08/05 13:46:51;;;;;;;3.15;2.70;;;;;;;;;;4954772;28;20222;-76
2022/08/05 13:49:30;;;;;;;3.25;2.95;;;;;;;;;;4954184;28;20207;-75
2022/08/05 13:52:10;;;;;;;2.88;2.53;;;;;;;;;;4955881;28;20219;-75
2022/08/05 13:54:40;;;;;;;4.13;2.92;;;;;;;;;;4953506;28;20229;-76
2022/08/05 13:57:09;;;;;;;4.40;2.88;;;;;;;;;;4954219;28;20269;-74
2022/08/05 13:59:43;;;;;;;3.90;3.40;;;;;;;;;;4951597;29;20208;-75
2022/08/05 14:02:29;;;;;;;3.53;3.13;;;;;;;;;;4951905;28;20210;-75
2022/08/05 14:05:14;;;;;;;3.85;3.33;;;;;;;;;;4955348;28;20202;-76
2022/08/05 14:07:56;;;;;;;3.92;3.53;;;;;;;;;;4946013;28;20234;-75
2022/08/05 14:10:36;;;;;;;4.93;4.10;;;;;;;;;;4954639;28;20202;-75
2022/08/05 14:13:06;;;;;;;4.43;3.83;;;;;;;;;;4953157;29;20217;-75
2022/08/05 14:15:36;;;;;;;4.43;3.40;;;;;;;;;;4956597;28;20206;-74
2022/08/05 14:18:25;;;;;;;3.95;3.55;;;;;;;;;;4958234;28;20218;-74
2022/08/05 14:20:53;;;;;;;4.63;3.92;;;;;;;;;;4951799;28;20238;-74
2022/08/05 14:23:22;;;;;;;6.00;3.92;;;;;;;;;;4956662;28;20770;-75
2022/08/05 14:25:55;;;;;;;5.78;4.05;;;;;;;;;;4950540;28;20217;-75
2022/08/05 14:28:26;;;;;;;5.38;4.50;;;;;;;;;;4954850;29;20260;-75
2022/08/05 14:30:56;;;;;;;4.38;3.97;;;;;;;;;;4947434;28;20351;-74
2022/08/05 14:33:25;;;;;;;4.93;4.18;;;;;;;;;;4954625;28;20214;-75
2022/08/05 14:35:53;;;;;;;4.63;4.22;;;;;;;;;;4952644;29;20221;-75
2022/08/05 14:38:22;;;;;;;5.88;4.15;;;;;;;;;;4943980;29;20230;-75
2022/08/05 14:41:04;;;;;;;4.22;3.83;;;;;;;;;;4957399;28;20719;-75
2022/08/05 14:43:35;;;;;;;4.13;3.42;;;;;;;;;;4952346;29;20206;-74
2022/08/05 14:46:23;;;;;;;5.63;3.08;;;;;;;;;;4957322;28;20202;-75
2022/08/05 14:48:56;;;;;;;3.28;2.97;;;;;;;;;;4957649;28;20273;-75
2022/08/05 14:51:29;;;;;;;3.78;3.00;;;;;;;;;;4946856;28;20210;-75
2022/08/05 14:53:58;;;;;;;3.20;2.90;;;;;;;;;;4949493;29;20213;-75
2022/08/05 14:56:50;;;;;;;3.45;2.45;;;;;;;;;;4953848;28;20744;-74
2022/08/05 14:59:22;;;;;;;3.50;2.40;;;;;;;;;;4956301;28;20218;-75
2022/08/05 15:01:50;;;;;;;3.33;2.40;;;;;;;;;;4951166;28;20206;-75
2022/08/05 15:04:21;;;;;;;2.72;2.50;;;;;;;;;;4956661;28;20645;-76
2022/08/05 15:06:50;;;;;;;2.88;2.13;;;;;;;;;;4967165;28;20217;-74
2022/08/05 15:09:20;;;;;;;2.83;2.03;;;;;;;;;;4953392;29;20629;-75
2022/08/05 15:12:11;;;;;;;2.60;2.40;;;;;;;;;;4955617;29;20223;-75
2022/08/05 15:14:44;;;;;;;3.00;2.00;;;;;;;;;;4939461;28;20246;-75
2022/08/05 15:17:18;;;;;;;2.92;2.42;;;;;;;;;;4941745;29;20274;-75
2022/08/05 15:20:08;;;;;;;3.40;2.10;;;;;;;;;;4963150;28;20233;-75
2022/08/05 15:22:46;;;;;;;2.55;2.00;;;;;;;;;;4952822;28;20202;-75
2022/08/05 15:25:22;;;;;;;3.53;2.10;;;;;;;;;;4956411;28;20229;-75
2022/08/05 15:28:25;;;;;;;3.63;2.20;;;;;;;;;;4955756;28;20238;-74
2022/08/05 15:30:56;;;;;;;2.55;2.13;;;;;;;;;;4955008;28;20269;-74
2022/08/05 15:33:25;;;;;;;4.05;2.70;;;;;;;;;;4956781;28;20202;-74
2022/08/05 15:36:14;;;;;;;2.88;1.90;;;;;;;;;;4955094;28;20207;-75
2022/08/05 15:38:52;;;;;;;3.30;2.22;;;;;;;;;;4945258;29;20223;-75
2022/08/05 15:41:40;;;;;;;2.88;2.05;;;;;;;;;;4951785;29;20199;-75
2022/08/05 15:44:24;;;;;;;2.70;1.95;;;;;;;;;;4955661;28;20198;-75
2022/08/05 15:46:56;;;;;;;3.20;2.00;;;;;;;;;;4956058;28;20198;-75